createdAt,value
2023-02-27T00:04:29.809Z,68.60
2023-02-27T00:09:50.617Z,68.52
2023-02-27T00:15:14.725Z,68.79
2023-02-27T00:20:38.265Z,68.92
2023-02-27T00:26:01.041Z,69.16
2023-02-27T00:31:21.781Z,69.29
2023-02-27T00:36:42.732Z,69.28
2023-02-27T00:42:03.821Z,69.00
2023-02-27T00:47:25.094Z,68.85
2023-02-27T00:52:47.065Z,68.99
2023-02-27T00:58:07.782Z,69.05
2023-02-27T01:03:28.741Z,68.98
2023-02-27T01:08:49.791Z,69.20
2023-02-27T01:14:10.569Z,69.10
2023-02-27T01:19:31.435Z,68.76
2023-02-27T01:24:52.297Z,68.82
2023-02-27T01:30:15.758Z,68.28
2023-02-27T01:35:39.496Z,68.04
2023-02-27T01:41:00.782Z,68.05
2023-02-27T01:46:21.903Z,68.26
2023-02-27T01:51:47.898Z,67.95
2023-02-27T01:57:09.862Z,67.73
2023-02-27T02:02:36.447Z,68.03
2023-02-27T02:07:58.292Z,67.93
2023-02-27T02:13:21.803Z,67.50
2023-02-27T02:19:13.270Z,67.89
2023-02-27T02:24:34.666Z,67.18
2023-02-27T02:30:25.975Z,67.89
2023-02-27T02:36:22.806Z,67.60
2023-02-27T02:42:03.651Z,67.63
2023-02-27T02:47:36.361Z,66.99
2023-02-27T02:53:36.658Z,67.77
2023-02-27T02:59:08.685Z,67.38
2023-02-27T03:05:00.481Z,67.88
2023-02-27T03:10:26.947Z,68.31
2023-02-27T03:16:15.919Z,67.51
2023-02-27T03:21:43.551Z,67.59
2023-02-27T03:27:07.138Z,67.66
2023-02-27T03:32:42.614Z,67.36
2023-02-27T03:38:11.969Z,67.93
2023-02-27T03:43:48.019Z,68.08
2023-02-27T03:49:10.156Z,67.73
2023-02-27T03:54:37.574Z,67.53
2023-02-27T03:59:59.222Z,67.50
2023-02-27T04:05:21.307Z,67.62
2023-02-27T04:11:15.903Z,67.18
2023-02-27T04:16:46.701Z,67.65
2023-02-27T04:22:46.165Z,67.69
2023-02-27T04:28:36.957Z,67.77
2023-02-27T04:34:08.492Z,67.56
2023-02-27T04:39:34.774Z,66.78
2023-02-27T04:45:00.694Z,67.45
2023-02-27T04:50:31.062Z,67.67
2023-02-27T04:56:01.896Z,67.80
2023-02-27T05:01:30.090Z,67.28
2023-02-27T05:06:54.867Z,67.43
2023-02-27T05:12:21.782Z,67.82
2023-02-27T05:17:53.559Z,67.38
2023-02-27T05:23:42.570Z,67.05
2023-02-27T05:29:17.618Z,66.72
2023-02-27T05:34:47.764Z,66.69
2023-02-27T05:40:12.593Z,67.64
2023-02-27T05:45:36.922Z,67.01
2023-02-27T05:50:59.143Z,67.45
2023-02-27T05:56:25.554Z,67.26
2023-02-27T06:01:46.682Z,67.40
2023-02-27T06:07:08.591Z,67.55
2023-02-27T06:12:29.440Z,67.81
2023-02-27T06:17:50.474Z,67.61
2023-02-27T06:23:11.990Z,67.48
2023-02-27T06:28:32.641Z,67.09
2023-02-27T06:33:55.667Z,67.15
2023-02-27T06:39:16.837Z,67.39
2023-02-27T06:44:38.176Z,67.50
2023-02-27T06:50:00.031Z,67.14
2023-02-27T06:55:22.745Z,67.37
2023-02-27T07:00:43.872Z,67.53
2023-02-27T07:06:05.018Z,67.48
2023-02-27T07:11:26.016Z,68.01
2023-02-27T07:16:50.922Z,67.34
2023-02-27T07:22:11.790Z,67.49
2023-02-27T07:27:33.192Z,67.65
2023-02-27T07:32:54.132Z,67.51
2023-02-27T07:38:24.093Z,68.31
2023-02-27T08:07:00.823Z,67.71
2023-02-27T08:12:22.267Z,67.76
2023-02-27T08:17:45.691Z,67.67
2023-02-27T08:23:07.052Z,66.80
2023-02-27T08:28:28.425Z,67.78
2023-02-27T08:33:55.277Z,67.60
2023-02-27T08:39:19.108Z,67.17
2023-02-27T08:44:40.289Z,67.15
2023-02-27T08:50:01.113Z,67.48
2023-02-27T08:55:22.088Z,67.64
2023-02-27T09:00:42.849Z,67.01
2023-02-27T09:06:03.557Z,66.96
2023-02-27T09:11:25.108Z,67.38
2023-02-27T09:16:46.887Z,66.74
2023-02-27T09:22:07.708Z,66.39
2023-02-27T09:27:28.341Z,66.23
2023-02-27T09:32:49.973Z,66.58
2023-02-27T09:38:12.267Z,66.28
2023-02-27T09:44:01.652Z,66.13
2023-02-27T09:49:26.307Z,66.12
2023-02-27T09:54:48.820Z,65.94
2023-02-27T10:00:35.451Z,65.91
2023-02-27T10:06:28.013Z,66.26
2023-02-27T10:12:16.953Z,64.63
2023-02-27T10:17:50.167Z,65.23
2023-02-27T10:23:18.330Z,65.30
2023-02-27T10:28:39.520Z,64.63
2023-02-27T10:34:02.467Z,64.61
2023-02-27T10:39:24.490Z,64.30
2023-02-27T10:44:45.209Z,64.93
2023-02-27T10:50:20.510Z,64.00
2023-02-27T10:55:43.044Z,63.54
2023-02-27T11:01:15.023Z,63.45
2023-02-27T11:06:36.135Z,63.04
2023-02-27T11:12:12.146Z,62.19
2023-02-27T11:17:34.797Z,62.79
2023-02-27T11:23:23.141Z,62.92
2023-02-27T11:28:44.016Z,62.52
2023-02-27T11:34:05.793Z,62.42
2023-02-27T11:39:40.570Z,61.10
2023-02-27T11:45:14.486Z,62.03
2023-02-27T11:51:05.149Z,61.59
2023-02-27T11:56:37.081Z,61.73
2023-02-27T12:02:05.638Z,61.50
2023-02-27T12:07:34.273Z,61.51
2023-02-27T12:13:06.696Z,61.58
2023-02-27T12:18:38.300Z,61.80
2023-02-27T12:24:23.834Z,62.33
2023-02-27T12:29:50.960Z,61.45
2023-02-27T12:35:24.626Z,60.99
2023-02-27T12:41:06.066Z,61.55
2023-02-27T12:47:17.740Z,61.41
2023-02-27T12:52:56.900Z,61.41
2023-02-27T12:58:36.494Z,61.46
2023-02-27T13:04:15.685Z,61.71
2023-02-27T13:09:54.808Z,60.83
2023-02-27T13:15:25.550Z,60.63
2023-02-27T13:21:09.322Z,61.00
2023-02-27T13:26:42.027Z,61.23
2023-02-27T13:32:41.343Z,60.36
2023-02-27T13:38:28.561Z,60.28
2023-02-27T13:43:57.378Z,60.36
2023-02-27T13:49:29.284Z,60.14
2023-02-27T13:54:51.950Z,60.56
2023-02-27T14:00:29.283Z,60.10
2023-02-27T14:05:53.111Z,60.00
2023-02-27T14:11:22.529Z,60.59
2023-02-27T14:16:52.944Z,59.89
2023-02-27T14:22:16.654Z,60.82
2023-02-27T14:27:51.599Z,60.61
2023-02-27T14:33:15.003Z,60.92
2023-02-27T14:38:38.357Z,60.99
2023-02-27T14:43:59.945Z,62.05
2023-02-27T14:49:39.116Z,62.70
2023-02-27T14:55:29.295Z,62.97
2023-02-27T15:01:02.556Z,63.68
2023-02-27T15:06:45.355Z,63.93
2023-02-27T15:12:06.601Z,63.95
2023-02-27T15:17:37.410Z,63.46
2023-02-27T15:23:01.591Z,63.57
2023-02-27T15:28:37.252Z,63.84
2023-02-27T15:34:00.495Z,63.81
2023-02-27T15:39:26.720Z,64.33
2023-02-27T15:44:48.942Z,64.49
2023-02-27T15:50:41.877Z,64.50
2023-02-27T15:56:07.671Z,64.57
2023-02-27T16:01:32.556Z,64.79
2023-02-27T16:07:08.353Z,64.69
2023-02-27T16:12:33.183Z,64.80
2023-02-27T16:18:07.824Z,64.68
2023-02-27T16:23:31.960Z,64.80
2023-02-27T16:29:00.078Z,65.30
2023-02-27T16:34:48.373Z,65.49
2023-02-27T16:40:23.422Z,64.96
2023-02-27T16:45:51.659Z,65.33
2023-02-27T16:51:17.980Z,65.13
2023-02-27T16:56:39.111Z,65.18
2023-02-27T17:02:02.689Z,65.08
2023-02-27T17:07:23.700Z,65.31
2023-02-27T17:12:44.487Z,65.73
2023-02-27T17:18:05.256Z,65.46
2023-02-27T17:23:26.321Z,65.74
2023-02-27T17:28:47.115Z,65.59
2023-02-27T17:34:11.340Z,65.48
2023-02-27T17:39:33.571Z,65.61
2023-02-27T17:44:54.531Z,65.78
2023-02-27T17:50:15.764Z,65.93
2023-02-27T17:55:40.423Z,65.81
2023-02-27T18:01:07.058Z,65.84
2023-02-27T18:06:28.801Z,66.01
2023-02-27T18:11:49.970Z,65.98
2023-02-27T18:17:12.606Z,66.27
2023-02-27T18:22:33.450Z,65.99
2023-02-27T18:27:57.372Z,65.85
2023-02-27T18:33:19.706Z,65.99
2023-02-27T18:38:41.349Z,66.03
2023-02-27T18:44:02.310Z,66.00
2023-02-27T18:49:23.544Z,65.72
2023-02-27T18:54:44.545Z,65.97
2023-02-27T19:00:07.080Z,66.46
2023-02-27T19:05:28.201Z,66.26
2023-02-27T19:10:49.147Z,66.10
2023-02-27T19:16:10.299Z,66.30
2023-02-27T19:21:31.469Z,66.45
2023-02-27T19:26:53.500Z,66.44
2023-02-27T19:32:14.839Z,66.41
2023-02-27T19:37:35.886Z,66.39
2023-02-27T19:42:56.584Z,66.22
2023-02-27T19:48:19.768Z,66.58
2023-02-27T19:53:42.471Z,66.24
2023-02-27T19:59:03.396Z,66.19
2023-02-27T20:04:24.526Z,66.68
2023-02-27T20:09:45.271Z,66.19
2023-02-27T20:15:10.951Z,66.65
2023-02-27T20:20:32.130Z,66.20
2023-02-27T20:25:53.349Z,65.73
2023-02-27T20:31:16.589Z,66.24
2023-02-27T20:36:39.378Z,66.03
2023-02-27T20:42:00.716Z,66.14
2023-02-27T20:47:21.510Z,65.75
2023-02-27T20:52:42.233Z,65.70
2023-02-27T20:58:03.420Z,65.92
2023-02-27T21:03:26.270Z,66.00
2023-02-27T21:08:49.715Z,66.17
2023-02-27T21:14:11.594Z,66.20
2023-02-27T21:19:32.338Z,65.95
2023-02-27T21:24:53.766Z,65.87
2023-02-27T21:30:15.388Z,66.19
2023-02-27T21:35:36.079Z,65.86
2023-02-27T21:40:58.298Z,65.72
2023-02-27T21:46:20.810Z,65.65
2023-02-27T21:51:41.673Z,66.16
2023-02-27T21:57:03.311Z,66.28
2023-02-27T22:02:24.093Z,65.97
2023-02-27T22:07:44.848Z,66.48
2023-02-27T22:13:05.518Z,66.30
2023-02-27T22:18:27.254Z,66.24
2023-02-27T22:23:48.829Z,66.10
2023-02-27T22:29:10.140Z,66.12
2023-02-27T22:34:31.081Z,66.67
2023-02-27T22:39:51.672Z,66.10
2023-02-27T22:45:12.483Z,66.50
2023-02-27T22:50:33.176Z,66.70
2023-02-27T22:55:55.856Z,66.21
2023-02-27T23:01:16.629Z,66.45
2023-02-27T23:06:39.535Z,66.62
2023-02-27T23:12:03.342Z,66.17
2023-02-27T23:17:24.283Z,66.22
2023-02-27T23:22:45.122Z,65.94
2023-02-27T23:28:06.810Z,66.46
2023-02-27T23:33:29.269Z,66.25
2023-02-27T23:38:49.875Z,66.89
2023-02-27T23:44:10.602Z,66.30
2023-02-27T23:49:31.295Z,66.63
2023-02-27T23:54:52.113Z,66.23
